createdAt,value
2019-01-19T00:00:24.573Z,9.10
2019-01-19T00:02:59.009Z,10.00
2019-01-19T00:05:42.482Z,10.07
2019-01-19T00:08:14.082Z,9.43
2019-01-19T00:10:54.833Z,10.10
2019-01-19T00:13:38.369Z,8.63
2019-01-19T00:16:12.653Z,9.27
2019-01-19T00:18:59.226Z,9.30
2019-01-19T00:21:30.773Z,8.93
2019-01-19T00:24:10.828Z,8.10
2019-01-19T00:27:02.089Z,8.83
2019-01-19T00:29:36.138Z,9.97
2019-01-19T00:32:10.444Z,9.90
2019-01-19T00:34:53.977Z,10.90
2019-01-19T00:37:25.533Z,9.73
2019-01-19T00:39:59.917Z,10.30
2019-01-19T00:42:34.208Z,8.53
2019-01-19T00:45:17.884Z,9.30
2019-01-19T00:47:58.337Z,9.47
2019-01-19T00:50:46.352Z,9.80
2019-01-19T00:53:20.513Z,8.53
2019-01-19T00:55:52.042Z,9.07
2019-01-19T00:58:24.414Z,10.10
2019-01-19T01:01:04.973Z,9.80
2019-01-19T01:03:56.109Z,9.43
2019-01-19T01:06:39.706Z,9.40
2019-01-19T01:09:26.044Z,12.10
2019-01-19T01:11:58.901Z,10.10
2019-01-19T01:14:42.421Z,9.90
2019-01-19T01:17:13.941Z,9.53
2019-01-19T01:20:00.449Z,8.70
2019-01-19T01:22:41.176Z,8.20
2019-01-19T01:25:24.864Z,8.63
2019-01-19T01:28:08.445Z,8.50
2019-01-19T01:30:51.851Z,8.37
2019-01-19T01:33:29.332Z,9.93
2019-01-19T01:36:35.768Z,9.87
2019-01-19T01:39:29.953Z,9.10
2019-01-19T01:42:16.321Z,10.83
2019-01-19T01:44:53.381Z,8.50
2019-01-19T01:47:56.549Z,10.17
2019-01-19T01:50:39.845Z,9.27
2019-01-19T01:53:14.134Z,10.23
2019-01-19T01:55:42.725Z,10.40
2019-01-19T01:58:16.889Z,10.10
2019-01-19T02:01:00.261Z,9.27
2019-01-19T02:03:46.490Z,8.83
2019-01-19T02:06:37.679Z,9.07
2019-01-19T02:09:24.017Z,8.43
2019-01-19T02:12:04.509Z,8.37
2019-01-19T02:14:42.141Z,7.87
2019-01-19T02:17:16.526Z,7.90
2019-01-19T02:19:48.048Z,8.10
2019-01-19T02:22:31.630Z,7.87
2019-01-19T02:25:15.093Z,8.10
2019-01-19T02:28:01.365Z,8.13
2019-01-19T02:30:54.110Z,7.77
2019-01-19T02:33:42.369Z,8.23
2019-01-19T02:36:19.518Z,7.70
2019-01-19T02:38:57.160Z,8.47
2019-01-19T02:41:45.193Z,8.10
2019-01-19T02:44:28.582Z,9.37
2019-01-19T02:47:06.321Z,8.50
2019-01-19T02:49:56.181Z,8.23
2019-01-19T02:52:39.661Z,7.70
2019-01-19T02:55:20.205Z,7.13
2019-01-19T02:58:10.741Z,7.53
2019-01-19T03:01:03.145Z,7.33
2019-01-19T03:03:37.362Z,7.40
2019-01-19T03:06:14.697Z,8.00
2019-01-19T03:09:07.081Z,8.43
2019-01-19T03:11:41.340Z,7.57
2019-01-19T03:14:24.580Z,7.57
2019-01-19T03:17:10.884Z,7.57
2019-01-19T03:19:51.070Z,7.30
2019-01-19T03:22:25.504Z,7.90
2019-01-19T03:25:15.902Z,8.77
2019-01-19T03:27:50.069Z,8.33
2019-01-19T03:30:27.383Z,8.40
2019-01-19T03:33:15.347Z,8.77
2019-01-19T03:35:52.265Z,9.90
2019-01-19T03:38:42.613Z,9.83
2019-01-19T03:41:22.672Z,10.07
2019-01-19T03:44:08.492Z,10.33
2019-01-19T03:46:40.094Z,11.03
2019-01-19T03:49:23.588Z,10.10
2019-01-19T03:52:03.848Z,9.57
2019-01-19T03:54:47.041Z,8.53
2019-01-19T03:57:24.498Z,9.53
2019-01-19T04:00:13.990Z,8.43
2019-01-19T04:02:55.705Z,8.03
2019-01-19T04:05:36.198Z,8.80
2019-01-19T04:08:24.432Z,9.03
2019-01-19T04:10:58.604Z,8.93
2019-01-19T04:13:45.119Z,8.70
2019-01-19T04:16:40.935Z,8.70
2019-01-19T04:19:21.289Z,8.60
2019-01-19T04:21:58.497Z,8.93
2019-01-19T04:24:29.290Z,10.13
2019-01-19T04:26:57.814Z,12.23
2019-01-19T04:29:26.294Z,12.53
2019-01-19T04:31:54.814Z,13.63
2019-01-19T04:34:23.442Z,13.57
2019-01-19T04:36:52.385Z,13.73
2019-01-19T04:39:20.908Z,13.53
2019-01-19T04:41:49.437Z,14.77
2019-01-19T04:44:17.921Z,12.13
2019-01-19T04:46:46.447Z,10.70
2019-01-19T04:49:14.964Z,10.63
2019-01-19T04:51:43.522Z,10.67
2019-01-19T04:54:12.043Z,9.80
2019-01-19T04:56:40.498Z,10.17
2019-01-19T04:59:09.043Z,9.30
2019-01-19T05:01:37.492Z,9.33
2019-01-19T05:04:06.008Z,10.67
2019-01-19T05:06:34.724Z,11.23
2019-01-19T05:09:04.025Z,10.13
2019-01-19T05:11:32.485Z,10.43
2019-01-19T05:14:01.037Z,10.17
2019-01-19T05:16:29.485Z,9.53
2019-01-19T05:18:57.940Z,10.07
2019-01-19T05:21:26.901Z,10.00
2019-01-19T05:23:55.833Z,9.73
2019-01-19T05:26:24.359Z,12.10
2019-01-19T05:28:52.914Z,11.33
2019-01-19T05:31:21.368Z,11.17
2019-01-19T05:33:49.821Z,10.93
2019-01-19T05:36:18.298Z,11.10
2019-01-19T05:38:46.889Z,10.47
2019-01-19T05:41:15.344Z,10.93
2019-01-19T05:43:43.834Z,11.43
2019-01-19T05:46:12.361Z,11.30
2019-01-19T05:48:40.816Z,11.27
2019-01-19T05:51:09.377Z,11.20
2019-01-19T05:53:37.911Z,11.37
2019-01-19T05:56:06.433Z,10.87
2019-01-19T05:58:34.977Z,11.70
2019-01-19T06:01:03.503Z,12.57
2019-01-19T06:03:31.955Z,12.60
2019-01-19T06:06:01.526Z,13.80
2019-01-19T06:08:29.985Z,12.73
2019-01-19T06:10:58.433Z,13.23
2019-01-19T06:13:26.950Z,12.70
2019-01-19T06:15:55.539Z,12.97
2019-01-19T06:18:23.994Z,13.47
2019-01-19T06:20:52.478Z,14.67
2019-01-19T06:23:21.020Z,13.53
2019-01-19T06:25:49.565Z,16.03
2019-01-19T06:28:18.087Z,15.97
2019-01-19T06:30:46.537Z,16.03
2019-01-19T06:33:15.066Z,17.40
2019-01-19T06:35:43.561Z,19.23
2019-01-19T06:38:12.013Z,21.97
2019-01-19T06:40:40.501Z,26.57
2019-01-19T06:43:08.993Z,22.77
2019-01-19T06:45:37.521Z,23.83
2019-01-19T06:48:06.049Z,25.67
2019-01-19T06:50:34.661Z,34.80
2019-01-19T06:53:03.122Z,43.17
2019-01-19T06:55:31.718Z,43.13
2019-01-19T06:58:00.214Z,39.13
2019-01-19T07:00:28.665Z,34.30
2019-01-19T07:02:57.190Z,36.77
2019-01-19T07:05:25.669Z,32.27
2019-01-19T07:07:54.126Z,31.63
2019-01-19T07:10:25.453Z,32.43
2019-01-19T07:12:53.929Z,33.53
2019-01-19T07:15:22.460Z,40.17
2019-01-19T07:17:50.990Z,47.50
2019-01-19T07:20:22.125Z,49.70
2019-01-19T07:22:50.653Z,54.13
2019-01-19T07:25:19.183Z,66.97
2019-01-19T07:27:47.742Z,61.67
2019-01-19T07:30:17.141Z,62.70
2019-01-19T07:32:46.949Z,59.00
2019-01-19T07:35:16.265Z,56.63
2019-01-19T07:37:44.855Z,52.97
2019-01-19T07:40:19.881Z,40.57
2019-01-19T07:42:50.078Z,37.50
2019-01-19T07:45:18.610Z,31.10
2019-01-19T07:47:47.133Z,29.27
2019-01-19T07:50:17.858Z,26.57
2019-01-19T07:52:46.620Z,23.17
2019-01-19T07:55:17.777Z,22.30
2019-01-19T07:57:46.698Z,23.70
2019-01-19T08:00:18.093Z,58.40
2019-01-19T08:02:46.691Z,77.43
2019-01-19T08:05:15.347Z,40.83
2019-01-19T08:07:43.869Z,29.43
2019-01-19T08:10:17.522Z,24.70
2019-01-19T08:12:46.322Z,23.80
2019-01-19T08:15:17.595Z,21.67
2019-01-19T08:17:46.189Z,20.57
2019-01-19T08:20:15.502Z,20.90
2019-01-19T08:22:44.103Z,20.03
2019-01-19T08:25:13.598Z,20.10
2019-01-19T08:27:42.162Z,21.13
2019-01-19T08:30:21.713Z,21.93
2019-01-19T08:32:50.734Z,18.87
2019-01-19T08:35:19.329Z,18.80
2019-01-19T08:37:48.527Z,19.87
2019-01-19T08:40:22.945Z,18.83
2019-01-19T08:42:53.179Z,18.43
2019-01-19T08:45:22.102Z,18.30
2019-01-19T08:47:52.601Z,17.83
2019-01-19T08:50:21.121Z,18.97
2019-01-19T08:52:49.657Z,18.60
2019-01-19T08:55:18.289Z,17.50
2019-01-19T08:57:46.982Z,17.47
2019-01-19T09:00:20.750Z,18.90
2019-01-19T09:02:49.592Z,18.00
2019-01-19T09:05:18.314Z,18.70
2019-01-19T09:07:46.926Z,16.77
2019-01-19T09:10:19.835Z,18.07
2019-01-19T09:12:48.579Z,17.53
2019-01-19T09:15:22.608Z,16.27
2019-01-19T09:17:51.175Z,17.70
2019-01-19T09:20:19.777Z,17.53
2019-01-19T09:22:49.966Z,17.80
2019-01-19T09:25:18.549Z,17.47
2019-01-19T09:27:47.132Z,17.47
2019-01-19T09:30:20.885Z,20.90
2019-01-19T09:32:49.594Z,17.53
2019-01-19T09:35:18.772Z,17.63
2019-01-19T09:37:47.523Z,17.10
2019-01-19T09:40:17.233Z,18.43
2019-01-19T09:42:46.496Z,18.20
2019-01-19T09:45:17.019Z,17.03
2019-01-19T09:47:45.638Z,17.07
2019-01-19T09:50:21.721Z,16.23
2019-01-19T09:52:50.199Z,15.40
2019-01-19T09:55:18.723Z,24.17
2019-01-19T09:57:47.317Z,16.07
2019-01-19T10:00:24.305Z,16.83
2019-01-19T10:02:52.895Z,15.80
2019-01-19T10:05:25.824Z,15.00
2019-01-19T10:07:54.516Z,15.53
2019-01-19T10:10:23.042Z,13.90
2019-01-19T10:12:51.565Z,14.03
2019-01-19T10:15:23.726Z,13.63
2019-01-19T10:17:52.365Z,13.00
2019-01-19T10:20:23.890Z,13.30
2019-01-19T10:22:52.534Z,13.47
2019-01-19T10:25:21.124Z,12.83
2019-01-19T10:27:49.718Z,13.77
2019-01-19T10:30:21.330Z,18.43
2019-01-19T10:32:49.927Z,15.63
2019-01-19T10:35:18.513Z,13.00
2019-01-19T10:37:47.261Z,14.07
2019-01-19T10:40:17.318Z,12.20
2019-01-19T10:42:45.837Z,21.60
2019-01-19T10:45:25.758Z,17.43
2019-01-19T10:47:54.845Z,15.33
2019-01-19T10:50:23.362Z,14.70
2019-01-19T10:52:51.997Z,14.40
